createdAt,value
2023-12-18T00:00:52.885Z,4.14
2023-12-18T00:01:52.854Z,4.08
2023-12-18T00:02:52.821Z,4.01
2023-12-18T00:03:52.982Z,4.06
2023-12-18T00:04:52.776Z,4.03
2023-12-18T00:05:52.766Z,4.12
2023-12-18T00:06:52.761Z,4.15
2023-12-18T00:07:52.776Z,4.07
2023-12-18T00:08:52.760Z,4.10
2023-12-18T00:09:52.775Z,4.03
2023-12-18T00:10:52.762Z,4.03
2023-12-18T00:11:52.739Z,4.12
2023-12-18T00:12:52.734Z,4.08
2023-12-18T00:13:52.720Z,4.15
2023-12-18T00:14:52.753Z,4.03
2023-12-18T00:15:52.707Z,4.06
2023-12-18T00:16:52.689Z,4.07
2023-12-18T00:17:52.732Z,4.08
2023-12-18T00:18:52.818Z,4.06
2023-12-18T00:19:52.697Z,4.04
2023-12-18T00:20:52.694Z,4.12
2023-12-18T00:21:52.692Z,4.06
2023-12-18T00:22:52.663Z,4.00
2023-12-18T00:23:52.645Z,4.08
2023-12-18T00:24:52.646Z,4.07
2023-12-18T00:25:52.657Z,4.06
2023-12-18T00:26:52.657Z,4.08
2023-12-18T00:27:53.037Z,4.03
2023-12-18T00:28:52.624Z,4.07
2023-12-18T00:29:52.618Z,4.03
2023-12-18T00:30:52.679Z,4.01
2023-12-18T00:31:52.606Z,4.12
2023-12-18T00:32:52.639Z,4.07
2023-12-18T00:33:52.709Z,4.14
2023-12-18T00:34:52.743Z,4.06
2023-12-18T00:35:52.564Z,4.14
2023-12-18T00:36:52.561Z,4.08
2023-12-18T00:37:52.554Z,4.21
2023-12-18T00:38:52.547Z,4.16
2023-12-18T00:39:52.557Z,4.08
2023-12-18T00:40:52.548Z,4.14
2023-12-18T00:41:52.529Z,4.07
2023-12-18T00:42:52.543Z,4.12
2023-12-18T00:43:52.516Z,4.12
2023-12-18T00:44:52.533Z,4.19
2023-12-18T00:45:52.510Z,4.10
2023-12-18T00:46:52.502Z,4.18
2023-12-18T00:47:52.559Z,4.21
2023-12-18T00:48:52.594Z,4.15
2023-12-18T00:49:52.638Z,4.12
2023-12-18T00:50:52.506Z,4.12
2023-12-18T00:51:52.495Z,4.07
2023-12-18T00:52:52.459Z,4.12
2023-12-18T00:53:52.444Z,4.14
2023-12-18T00:54:52.449Z,4.10
2023-12-18T00:55:52.597Z,4.18
2023-12-18T00:56:52.438Z,4.14
2023-12-18T00:57:54.226Z,4.07
2023-12-18T00:58:53.421Z,4.07
2023-12-18T00:59:52.425Z,4.08
2023-12-18T01:00:52.499Z,4.04
2023-12-18T01:01:52.413Z,4.14
2023-12-18T01:02:52.433Z,4.08
2023-12-18T01:03:52.565Z,4.12
2023-12-18T01:04:52.452Z,4.10
2023-12-18T01:05:52.390Z,4.10
2023-12-18T01:06:52.367Z,4.07
2023-12-18T01:07:52.386Z,4.08
2023-12-18T01:08:52.365Z,4.03
2023-12-18T01:09:52.369Z,4.07
2023-12-18T01:10:52.354Z,4.06
2023-12-18T01:11:52.350Z,4.16
2023-12-18T01:12:52.366Z,4.10
2023-12-18T01:13:52.427Z,4.06
2023-12-18T01:14:52.323Z,4.18
2023-12-18T01:15:52.337Z,4.06
2023-12-18T01:16:52.319Z,4.08
2023-12-18T01:17:52.359Z,4.06
2023-12-18T01:18:52.411Z,4.16
2023-12-18T01:19:52.403Z,4.03
2023-12-18T01:20:52.281Z,4.16
2023-12-18T01:21:52.280Z,4.06
2023-12-18T01:23:01.916Z,4.04
2023-12-18T01:23:54.288Z,4.22
2023-12-18T01:24:52.265Z,4.07
2023-12-18T01:25:52.264Z,4.14
2023-12-18T01:26:52.245Z,4.10
2023-12-18T01:27:52.276Z,4.12
2023-12-18T01:28:52.571Z,4.16
2023-12-18T01:29:52.225Z,4.14
2023-12-18T01:30:52.320Z,4.22
2023-12-18T01:31:52.208Z,4.15
2023-12-18T01:32:52.266Z,4.16
2023-12-18T01:33:52.228Z,4.12
2023-12-18T01:34:52.199Z,4.07
2023-12-18T01:35:52.193Z,4.08
2023-12-18T01:36:52.177Z,4.12
2023-12-18T01:37:52.181Z,4.18
2023-12-18T01:38:52.154Z,4.08
2023-12-18T01:39:52.163Z,4.12
2023-12-18T01:40:52.180Z,4.14
2023-12-18T01:41:52.156Z,4.12
2023-12-18T01:42:52.140Z,4.10
2023-12-18T01:43:52.131Z,4.15
2023-12-18T01:44:52.117Z,4.06
2023-12-18T01:45:52.121Z,4.22
2023-12-18T01:46:52.144Z,4.10
2023-12-18T01:47:52.190Z,4.08
2023-12-18T01:48:52.309Z,4.08
2023-12-18T01:49:52.157Z,4.12
2023-12-18T01:50:52.073Z,4.14
2023-12-18T01:51:52.181Z,4.21
2023-12-18T01:52:52.070Z,4.21
2023-12-18T01:53:52.063Z,4.19
2023-12-18T01:54:52.066Z,4.16
2023-12-18T01:55:52.059Z,4.16
2023-12-18T01:56:52.051Z,4.22
2023-12-18T01:57:52.126Z,4.22
2023-12-18T01:58:52.040Z,4.16
2023-12-18T01:59:52.061Z,4.12
2023-12-18T02:00:52.084Z,4.07
2023-12-18T02:01:52.017Z,4.19
2023-12-18T02:02:52.013Z,4.16
2023-12-18T02:03:52.149Z,4.01
2023-12-18T02:04:52.038Z,4.08
2023-12-18T02:05:51.999Z,4.07
2023-12-18T02:06:51.992Z,4.14
2023-12-18T02:07:51.976Z,4.06
2023-12-18T02:08:51.957Z,4.12
2023-12-18T02:09:52.666Z,4.15
2023-12-18T02:10:51.964Z,4.04
2023-12-18T02:11:51.951Z,4.19
2023-12-18T02:12:51.983Z,4.18
2023-12-18T02:13:51.941Z,4.18
2023-12-18T02:14:51.917Z,4.19
2023-12-18T02:15:51.907Z,4.18
2023-12-18T02:16:51.904Z,4.19
2023-12-18T02:17:51.954Z,4.16
2023-12-18T02:18:52.045Z,4.19
2023-12-18T02:19:51.940Z,4.19
2023-12-18T02:20:51.957Z,4.22
2023-12-18T02:21:51.955Z,4.15
2023-12-18T02:22:52.012Z,4.12
2023-12-18T02:23:52.046Z,4.21
2023-12-18T02:24:51.894Z,4.15
2023-12-18T02:25:51.911Z,4.16
2023-12-18T02:26:51.889Z,4.14
2023-12-18T02:27:51.930Z,4.10
2023-12-18T02:28:51.952Z,4.15
2023-12-18T02:29:51.849Z,4.16
2023-12-18T02:30:51.921Z,4.15
2023-12-18T02:31:51.834Z,4.25
2023-12-18T02:32:51.872Z,4.25
2023-12-18T02:33:52.144Z,4.12
2023-12-18T02:34:52.040Z,4.18
2023-12-18T02:35:51.787Z,4.15
2023-12-18T02:36:51.770Z,4.22
2023-12-18T02:37:51.773Z,4.12
2023-12-18T02:38:51.765Z,4.15
2023-12-18T02:39:51.785Z,4.07
2023-12-18T02:40:51.739Z,4.12
2023-12-18T02:41:51.753Z,4.07
2023-12-18T02:42:51.823Z,4.07
2023-12-18T02:43:51.719Z,4.04
2023-12-18T02:44:51.771Z,4.08
2023-12-18T02:45:51.762Z,4.10
2023-12-18T02:46:51.688Z,4.03
2023-12-18T02:47:51.700Z,4.06
2023-12-18T02:48:51.802Z,4.01
2023-12-18T02:49:51.761Z,4.06
2023-12-18T02:50:51.677Z,4.03
2023-12-18T02:51:51.655Z,4.06
2023-12-18T02:52:51.657Z,4.01
2023-12-18T02:53:51.645Z,4.10
2023-12-18T02:54:51.655Z,3.97
2023-12-18T02:55:51.662Z,4.07
2023-12-18T02:56:51.637Z,4.03
2023-12-18T02:57:51.682Z,3.98
2023-12-18T02:58:51.651Z,4.04
2023-12-18T02:59:51.624Z,3.94
2023-12-18T03:00:51.858Z,3.92
2023-12-18T03:01:51.621Z,3.97
2023-12-18T03:02:51.621Z,4.00
2023-12-18T03:03:51.631Z,4.03
2023-12-18T03:04:51.611Z,3.98
2023-12-18T03:05:51.580Z,3.98
2023-12-18T03:06:51.576Z,3.96
2023-12-18T03:07:51.559Z,3.97
2023-12-18T03:08:51.569Z,3.85
2023-12-18T03:09:51.571Z,4.00
2023-12-18T03:10:51.550Z,3.92
2023-12-18T03:11:51.536Z,3.94
2023-12-18T03:12:51.526Z,3.98
2023-12-18T03:13:51.514Z,3.88
2023-12-18T03:14:51.531Z,3.89
2023-12-18T03:15:51.592Z,3.92
2023-12-18T03:16:51.500Z,3.90
2023-12-18T03:17:51.623Z,3.92
2023-12-18T03:18:51.623Z,3.86
2023-12-18T03:19:51.584Z,3.96
2023-12-18T03:20:51.475Z,4.01
2023-12-18T03:21:51.483Z,3.94
2023-12-18T03:22:51.463Z,3.98
2023-12-18T03:23:51.453Z,3.83
2023-12-18T03:24:51.587Z,3.88
2023-12-18T03:25:51.440Z,3.92
2023-12-18T03:26:51.433Z,3.97
2023-12-18T03:27:51.472Z,3.94
2023-12-18T03:28:51.424Z,3.92
2023-12-18T03:29:51.424Z,3.97
2023-12-18T03:30:51.480Z,3.92
2023-12-18T03:31:51.401Z,3.85
2023-12-18T03:32:51.434Z,3.85
2023-12-18T03:33:51.430Z,3.90
2023-12-18T03:34:51.408Z,3.86
2023-12-18T03:35:51.414Z,3.88
2023-12-18T03:36:51.365Z,3.75
2023-12-18T03:37:51.357Z,3.94
2023-12-18T03:38:51.355Z,3.78
2023-12-18T03:39:51.346Z,3.79
2023-12-18T03:40:52.114Z,3.88
2023-12-18T03:41:51.339Z,3.76
2023-12-18T03:42:51.329Z,3.83
2023-12-18T03:43:51.321Z,3.78
2023-12-18T03:44:51.318Z,3.75
2023-12-18T03:45:51.370Z,3.78
2023-12-18T03:46:51.329Z,3.82
2023-12-18T03:47:51.448Z,3.65
2023-12-18T03:48:52.459Z,3.76
2023-12-18T03:49:51.312Z,3.75
2023-12-18T03:50:51.285Z,3.75
2023-12-18T03:51:51.637Z,3.75
2023-12-18T03:52:51.270Z,3.75
2023-12-18T03:53:51.257Z,3.76
2023-12-18T03:54:51.285Z,3.90
2023-12-18T03:55:51.230Z,3.85
2023-12-18T03:56:51.246Z,3.83
2023-12-18T03:57:51.272Z,3.82
2023-12-18T03:58:51.248Z,3.78
2023-12-18T03:59:51.213Z,3.71
2023-12-18T04:00:51.287Z,3.78
2023-12-18T04:01:51.213Z,3.80
2023-12-18T04:02:51.208Z,3.79
2023-12-18T04:03:51.223Z,3.86
2023-12-18T04:04:51.271Z,3.82
2023-12-18T04:05:51.197Z,3.79
2023-12-18T04:06:51.164Z,3.76
2023-12-18T04:07:51.165Z,3.86
2023-12-18T04:08:51.144Z,3.88
2023-12-18T04:09:51.195Z,3.82
2023-12-18T04:10:51.130Z,3.79
2023-12-18T04:11:51.129Z,3.83
2023-12-18T04:12:51.179Z,3.78
2023-12-18T04:13:51.122Z,3.86
2023-12-18T04:14:51.105Z,3.82
2023-12-18T04:15:51.138Z,3.83
2023-12-18T04:16:51.102Z,3.80
2023-12-18T04:17:51.202Z,3.88
2023-12-18T04:18:51.245Z,3.85
2023-12-18T04:19:51.113Z,3.80
2023-12-18T04:20:51.076Z,3.83
2023-12-18T04:21:51.087Z,3.78
2023-12-18T04:22:51.050Z,3.82
2023-12-18T04:23:51.150Z,3.78
2023-12-18T04:24:51.080Z,3.90
2023-12-18T04:25:51.045Z,3.75
2023-12-18T04:26:51.036Z,3.85
2023-12-18T04:27:51.074Z,3.80
2023-12-18T04:28:51.028Z,3.83
2023-12-18T04:29:51.012Z,3.80
2023-12-18T04:30:51.237Z,3.78
2023-12-18T04:31:50.988Z,3.71
2023-12-18T04:32:52.265Z,3.82
2023-12-18T04:33:51.034Z,3.70
2023-12-18T04:34:51.034Z,3.76
2023-12-18T04:35:50.973Z,3.76
2023-12-18T04:36:51.038Z,3.78
2023-12-18T04:37:50.986Z,3.70
2023-12-18T04:38:50.985Z,3.76
2023-12-18T04:39:50.957Z,3.67
2023-12-18T04:40:50.935Z,3.71
2023-12-18T04:41:50.937Z,3.78
2023-12-18T04:42:50.927Z,3.68
2023-12-18T04:43:50.921Z,3.80
2023-12-18T04:44:50.931Z,3.68
2023-12-18T04:45:50.946Z,3.70
2023-12-18T04:46:50.893Z,3.72
2023-12-18T04:47:50.933Z,3.70
2023-12-18T04:48:51.046Z,3.76
2023-12-18T04:49:50.948Z,3.76
2023-12-18T04:50:50.874Z,3.67
2023-12-18T04:51:51.015Z,3.71
2023-12-18T04:52:50.856Z,3.71
2023-12-18T04:53:50.840Z,3.70
2023-12-18T04:54:50.894Z,3.71
2023-12-18T04:55:50.850Z,3.71
2023-12-18T04:56:50.837Z,3.65
2023-12-18T04:57:50.962Z,3.65
2023-12-18T04:58:50.808Z,3.62
2023-12-18T04:59:50.790Z,3.64
2023-12-18T05:00:50.981Z,3.75
2023-12-18T05:01:50.828Z,3.64
2023-12-18T05:02:50.813Z,3.65
2023-12-18T05:03:50.968Z,3.67
2023-12-18T05:04:50.903Z,3.65
2023-12-18T05:05:50.792Z,3.65
2023-12-18T05:06:50.797Z,3.61
2023-12-18T05:07:50.760Z,3.67
2023-12-18T05:08:50.751Z,3.58
2023-12-18T05:09:50.881Z,3.60
2023-12-18T05:10:50.748Z,3.65
2023-12-18T05:11:50.735Z,3.52
2023-12-18T05:12:50.810Z,3.61
2023-12-18T05:13:50.722Z,3.60
2023-12-18T05:14:50.705Z,3.61
2023-12-18T05:15:50.745Z,3.57
2023-12-18T05:16:50.697Z,3.57
2023-12-18T05:17:50.723Z,3.58
2023-12-18T05:18:50.901Z,3.58
2023-12-18T05:19:50.717Z,3.52
2023-12-18T05:20:50.668Z,3.60
2023-12-18T05:21:50.738Z,3.49
2023-12-18T05:22:50.673Z,3.47
2023-12-18T05:23:50.649Z,3.46
2023-12-18T05:24:50.714Z,3.44
2023-12-18T05:25:51.642Z,3.44
2023-12-18T05:26:50.647Z,3.53
2023-12-18T05:27:50.633Z,3.53
2023-12-18T05:28:50.619Z,3.47
2023-12-18T05:29:50.617Z,3.49
2023-12-18T05:30:50.683Z,3.44
2023-12-18T05:31:50.671Z,3.57
2023-12-18T05:32:50.638Z,3.46
2023-12-18T05:33:51.709Z,3.44
2023-12-18T05:34:50.767Z,3.50
2023-12-18T05:35:50.839Z,3.49
2023-12-18T05:36:50.658Z,3.46
2023-12-18T05:37:50.561Z,3.49
2023-12-18T05:38:50.552Z,3.44
2023-12-18T05:39:50.557Z,3.47
2023-12-18T05:40:50.570Z,3.57
2023-12-18T05:41:50.560Z,3.43
2023-12-18T05:42:50.576Z,3.39
2023-12-18T05:43:50.524Z,3.43
2023-12-18T05:44:50.511Z,3.42
2023-12-18T05:45:50.536Z,3.43
2023-12-18T05:46:50.513Z,3.50
2023-12-18T05:47:50.504Z,3.47
2023-12-18T05:48:50.626Z,3.43
2023-12-18T05:49:53.880Z,3.39
2023-12-18T05:50:51.487Z,3.40
2023-12-18T05:51:50.537Z,3.36
2023-12-18T05:52:50.463Z,3.36
2023-12-18T05:53:50.461Z,3.31
2023-12-18T05:54:50.551Z,3.43
2023-12-18T05:55:50.437Z,3.34
2023-12-18T05:56:50.441Z,3.46
2023-12-18T05:57:50.478Z,3.43
2023-12-18T05:58:50.427Z,3.36
2023-12-18T05:59:50.415Z,3.36
2023-12-18T06:00:50.448Z,3.33
2023-12-18T06:01:50.460Z,3.30
2023-12-18T06:02:50.406Z,3.25
2023-12-18T06:03:50.444Z,3.25
2023-12-18T06:04:50.443Z,3.30
2023-12-18T06:05:50.384Z,3.34
2023-12-18T06:06:50.414Z,3.33
2023-12-18T06:07:50.363Z,3.31
2023-12-18T06:08:50.356Z,3.31
2023-12-18T06:09:50.382Z,3.25
2023-12-18T06:10:50.347Z,3.28
2023-12-18T06:11:50.339Z,3.25
2023-12-18T06:12:50.356Z,3.24
2023-12-18T06:13:50.324Z,3.25
2023-12-18T06:14:50.303Z,3.24
2023-12-18T06:15:50.386Z,3.31
2023-12-18T06:16:50.316Z,3.20
2023-12-18T06:17:50.425Z,3.27
2023-12-18T06:18:51.410Z,3.24
2023-12-18T06:19:50.376Z,3.27
2023-12-18T06:20:50.266Z,3.25
2023-12-18T06:21:50.385Z,3.31
2023-12-18T06:22:50.276Z,3.25
2023-12-18T06:23:50.270Z,3.20
2023-12-18T06:24:50.299Z,3.20
2023-12-18T06:25:50.277Z,3.20
2023-12-18T06:26:50.283Z,3.16
2023-12-18T06:27:50.368Z,3.20
2023-12-18T06:28:50.235Z,3.20
2023-12-18T06:29:50.215Z,3.21
2023-12-18T06:30:50.270Z,3.16
2023-12-18T06:31:50.248Z,3.16
2023-12-18T06:32:50.512Z,3.09
2023-12-18T06:33:50.412Z,3.21
2023-12-18T06:34:50.296Z,3.09
2023-12-18T06:35:50.181Z,3.12
2023-12-18T06:36:50.161Z,3.03
2023-12-18T06:37:50.165Z,3.13
2023-12-18T06:38:50.170Z,2.98
2023-12-18T06:39:50.153Z,3.03
2023-12-18T06:40:50.142Z,3.00
2023-12-18T06:41:50.135Z,3.10
2023-12-18T06:42:50.145Z,3.15
2023-12-18T06:43:50.115Z,3.07
2023-12-18T06:44:50.129Z,3.00
2023-12-18T06:45:50.205Z,3.10
2023-12-18T06:46:50.095Z,3.09
2023-12-18T06:47:50.146Z,3.09
2023-12-18T06:48:50.187Z,3.10
2023-12-18T06:49:50.104Z,3.10
2023-12-18T06:50:50.074Z,3.10
2023-12-18T06:51:50.098Z,3.02
2023-12-18T06:52:50.055Z,3.05
2023-12-18T06:53:50.053Z,3.02
2023-12-18T06:54:50.101Z,3.02
2023-12-18T06:55:51.036Z,2.98
2023-12-18T06:56:50.066Z,2.95
2023-12-18T06:57:50.100Z,2.98
2023-12-18T06:58:50.034Z,2.97
2023-12-18T06:59:50.030Z,3.03
2023-12-18T07:00:50.110Z,3.05
2023-12-18T07:01:50.041Z,2.97
2023-12-18T07:02:50.005Z,3.02
2023-12-18T07:03:50.081Z,3.00
2023-12-18T07:04:50.040Z,2.92
2023-12-18T07:05:50.022Z,2.98
2023-12-18T07:06:49.994Z,2.91
2023-12-18T07:07:49.962Z,2.92
2023-12-18T07:08:49.972Z,2.94
2023-12-18T07:09:50.000Z,2.88
2023-12-18T07:10:49.947Z,2.92
2023-12-18T07:11:49.943Z,2.85
2023-12-18T07:12:49.955Z,2.97
2023-12-18T07:13:50.000Z,2.92
2023-12-18T07:14:49.908Z,2.95
2023-12-18T07:15:49.939Z,2.97
2023-12-18T07:16:49.912Z,2.91
2023-12-18T07:17:49.945Z,2.88
2023-12-18T07:18:50.012Z,2.87
2023-12-18T07:19:49.877Z,2.85
2023-12-18T07:20:49.938Z,2.91
2023-12-18T07:21:49.920Z,2.94
2023-12-18T07:22:49.847Z,2.94
2023-12-18T07:23:49.842Z,2.92
2023-12-18T07:24:49.928Z,2.91
2023-12-18T07:25:49.830Z,2.89
2023-12-18T07:26:49.815Z,2.89
2023-12-18T07:27:49.883Z,2.85
2023-12-18T07:28:49.802Z,2.87
2023-12-18T07:29:49.825Z,2.81
2023-12-18T07:30:49.861Z,2.85
2023-12-18T07:31:49.818Z,2.77
2023-12-18T07:32:49.864Z,2.77
2023-12-18T07:33:49.852Z,2.87
2023-12-18T07:34:49.866Z,2.81
2023-12-18T07:35:49.776Z,2.82
2023-12-18T07:36:49.905Z,2.76
2023-12-18T07:37:49.773Z,2.85
2023-12-18T07:38:49.740Z,2.77
2023-12-18T07:39:49.807Z,2.91
2023-12-18T07:40:49.763Z,2.87
2023-12-18T07:41:49.735Z,2.92
2023-12-18T07:42:49.785Z,2.87
2023-12-18T07:43:49.768Z,2.92
2023-12-18T07:44:49.707Z,2.89
2023-12-18T07:45:49.828Z,2.88
2023-12-18T07:46:49.716Z,2.88
2023-12-18T07:47:49.810Z,2.85
2023-12-18T07:48:50.047Z,2.82
2023-12-18T07:49:51.055Z,2.94
2023-12-18T07:50:50.676Z,2.91
2023-12-18T07:51:49.734Z,2.87
2023-12-18T07:52:49.642Z,2.94
2023-12-18T07:53:49.827Z,2.81
2023-12-18T07:54:49.675Z,2.88
2023-12-18T07:55:51.169Z,2.89
2023-12-18T07:56:49.623Z,2.91
2023-12-18T07:57:49.663Z,2.84
2023-12-18T07:58:49.625Z,2.88
2023-12-18T07:59:49.611Z,2.77
2023-12-18T08:00:49.665Z,2.85
2023-12-18T08:01:49.625Z,2.88
2023-12-18T08:02:49.697Z,2.77
2023-12-18T08:03:49.705Z,2.81
2023-12-18T08:04:49.589Z,2.79
2023-12-18T08:05:49.573Z,2.77
2023-12-18T08:06:49.594Z,2.82
2023-12-18T08:07:49.557Z,2.81
2023-12-18T08:08:49.614Z,2.82
2023-12-18T08:09:49.625Z,2.76
2023-12-18T08:10:49.539Z,2.81
2023-12-18T08:11:49.570Z,2.81
2023-12-18T08:12:49.591Z,2.84
2023-12-18T08:13:49.498Z,2.70
2023-12-18T08:14:49.518Z,2.77
2023-12-18T08:15:49.521Z,2.82
2023-12-18T08:16:50.520Z,2.87
2023-12-18T08:17:49.556Z,2.77
2023-12-18T08:18:49.629Z,2.81
2023-12-18T08:19:49.553Z,2.82
2023-12-18T08:20:49.457Z,2.67
2023-12-18T08:21:49.707Z,2.77
2023-12-18T08:22:49.449Z,2.84
2023-12-18T08:23:49.479Z,2.81
2023-12-18T08:24:49.481Z,2.84
2023-12-18T08:25:49.446Z,2.79
2023-12-18T08:26:49.467Z,2.87
2023-12-18T08:27:49.550Z,2.87
2023-12-18T08:28:49.445Z,2.84
2023-12-18T08:29:49.406Z,2.89
2023-12-18T08:30:49.513Z,2.84
2023-12-18T08:31:49.403Z,2.84
2023-12-18T08:32:49.389Z,2.73
2023-12-18T08:33:49.425Z,2.79
2023-12-18T08:34:49.517Z,2.85
2023-12-18T08:35:49.366Z,2.73
2023-12-18T08:36:49.421Z,2.74
2023-12-18T08:37:49.351Z,2.76
2023-12-18T08:38:50.030Z,2.82
2023-12-18T08:39:49.459Z,2.88
2023-12-18T08:40:50.425Z,2.94
2023-12-18T08:41:49.321Z,2.91
2023-12-18T08:42:49.337Z,2.94
2023-12-18T08:43:58.243Z,2.87
2023-12-18T08:44:51.323Z,2.82
2023-12-18T08:45:49.436Z,2.94
2023-12-18T08:46:49.289Z,2.91
2023-12-18T08:47:49.468Z,2.85
2023-12-18T08:48:49.429Z,2.87
2023-12-18T08:49:49.273Z,2.98
2023-12-18T08:50:49.876Z,2.92
2023-12-18T08:51:49.293Z,2.94
2023-12-18T08:52:49.254Z,2.97
2023-12-18T08:53:49.963Z,3.03
2023-12-18T08:54:49.312Z,2.95
2023-12-18T08:55:49.292Z,2.89
2023-12-18T08:56:49.230Z,2.91
2023-12-18T08:57:49.235Z,2.82
2023-12-18T08:58:49.227Z,2.84
2023-12-18T08:59:49.190Z,2.88
2023-12-18T09:00:49.274Z,2.94
2023-12-18T09:01:49.179Z,2.92
2023-12-18T09:02:49.249Z,2.95
2023-12-18T09:03:49.354Z,3.00
2023-12-18T09:04:49.277Z,3.03
2023-12-18T09:05:49.202Z,3.10
2023-12-18T09:06:49.152Z,3.06
2023-12-18T09:07:49.171Z,3.10
2023-12-18T09:08:49.172Z,3.10
2023-12-18T09:09:49.231Z,3.18
2023-12-18T09:10:49.122Z,3.12
2023-12-18T09:11:49.122Z,3.05
2023-12-18T09:12:49.253Z,3.03
2023-12-18T09:13:49.114Z,3.09
2023-12-18T09:14:49.192Z,2.97
2023-12-18T09:15:49.204Z,3.15
2023-12-18T09:16:49.086Z,3.15
2023-12-18T09:17:49.096Z,3.16
2023-12-18T09:18:50.047Z,3.18
2023-12-18T09:19:49.150Z,3.25
2023-12-18T09:20:49.071Z,3.16
2023-12-18T09:21:49.144Z,3.27
2023-12-18T09:22:49.047Z,3.18
2023-12-18T09:23:49.039Z,3.18
2023-12-18T09:24:49.172Z,3.23
2023-12-18T09:25:49.040Z,3.20
2023-12-18T09:26:49.026Z,3.15
2023-12-18T09:27:49.064Z,3.15
2023-12-18T09:28:49.134Z,3.16
2023-12-18T09:29:49.047Z,3.24
2023-12-18T09:30:49.056Z,3.18
2023-12-18T09:31:49.153Z,3.30
2023-12-18T09:32:49.270Z,3.21
2023-12-18T09:33:49.257Z,3.16
2023-12-18T09:34:49.265Z,3.25
2023-12-18T09:35:48.965Z,3.27
2023-12-18T09:36:49.095Z,3.24
2023-12-18T09:37:48.932Z,3.31
2023-12-18T09:38:48.966Z,3.24
2023-12-18T09:39:49.026Z,3.25
2023-12-18T09:40:48.939Z,3.18
2023-12-18T09:41:48.915Z,3.27
2023-12-18T09:42:48.939Z,3.30
2023-12-18T09:43:48.917Z,3.28
2023-12-18T09:44:48.902Z,3.36
2023-12-18T09:45:48.932Z,3.43
2023-12-18T09:46:48.880Z,3.43
2023-12-18T09:47:48.963Z,3.36
2023-12-18T09:48:48.945Z,3.39
2023-12-18T09:49:48.953Z,3.40
2023-12-18T09:50:48.861Z,3.31
2023-12-18T09:51:48.910Z,3.31
2023-12-18T09:52:48.853Z,3.28
2023-12-18T09:53:48.861Z,3.34
2023-12-18T09:54:48.842Z,3.34
2023-12-18T09:55:48.825Z,3.31
2023-12-18T09:56:48.800Z,3.28
2023-12-18T09:57:48.824Z,3.34
2023-12-18T09:58:48.800Z,3.33
2023-12-18T09:59:48.803Z,3.31
2023-12-18T10:00:49.101Z,3.39
2023-12-18T10:01:48.840Z,3.31
2023-12-18T10:02:48.778Z,3.39
2023-12-18T10:03:48.819Z,3.33
2023-12-18T10:04:48.781Z,3.36
2023-12-18T10:05:49.955Z,3.36
2023-12-18T10:06:48.814Z,3.43
2023-12-18T10:07:48.889Z,3.49
2023-12-18T10:08:48.723Z,3.33
2023-12-18T10:09:48.801Z,3.36
2023-12-18T10:10:48.738Z,3.42
2023-12-18T10:11:50.641Z,3.30
2023-12-18T10:12:48.912Z,3.39
2023-12-18T10:13:48.694Z,3.40
2023-12-18T10:14:48.693Z,3.33
2023-12-18T10:15:48.714Z,3.36
2023-12-18T10:16:48.671Z,3.21
2023-12-18T10:17:48.686Z,3.33
2023-12-18T10:18:48.786Z,3.30
2023-12-18T10:19:48.696Z,3.36
2023-12-18T10:20:48.638Z,3.46
2023-12-18T10:21:48.681Z,3.47
2023-12-18T10:22:49.373Z,3.44
2023-12-18T10:23:48.621Z,3.39
2023-12-18T10:24:48.692Z,3.40
2023-12-18T10:25:48.639Z,3.49
2023-12-18T10:26:48.620Z,3.46
2023-12-18T10:27:48.793Z,3.33
2023-12-18T10:28:48.590Z,3.46
2023-12-18T10:29:48.579Z,3.33
2023-12-18T10:30:48.660Z,3.34
2023-12-18T10:31:48.741Z,3.31
2023-12-18T10:32:48.658Z,3.36
2023-12-18T10:33:48.750Z,3.44
2023-12-18T10:34:48.610Z,3.43
2023-12-18T10:35:48.570Z,3.34
2023-12-18T10:36:48.655Z,3.40
2023-12-18T10:37:48.564Z,3.50
2023-12-18T10:38:48.534Z,3.40
2023-12-18T10:39:48.584Z,3.42
2023-12-18T10:40:48.531Z,3.44
2023-12-18T10:41:48.500Z,3.47
2023-12-18T10:42:48.527Z,3.44
2023-12-18T10:43:48.481Z,3.52
2023-12-18T10:44:48.481Z,3.54
2023-12-18T10:45:48.550Z,3.47
2023-12-18T10:46:48.469Z,3.53
2023-12-18T10:47:48.498Z,3.49
2023-12-18T10:48:48.480Z,3.42
2023-12-18T10:49:48.554Z,3.50
2023-12-18T10:50:48.468Z,3.47
2023-12-18T10:51:48.468Z,3.57
2023-12-18T10:52:48.441Z,3.58
2023-12-18T10:53:48.422Z,3.57
2023-12-18T10:54:48.489Z,3.62
2023-12-18T10:55:48.426Z,3.60
2023-12-18T10:56:48.399Z,3.71
2023-12-18T10:57:48.385Z,3.76
2023-12-18T10:58:48.400Z,3.80
2023-12-18T10:59:48.392Z,3.78
2023-12-18T11:00:48.458Z,3.88
2023-12-18T11:01:48.350Z,3.82
2023-12-18T11:02:48.370Z,3.83
2023-12-18T11:03:48.539Z,3.90
2023-12-18T11:04:48.337Z,3.96
2023-12-18T11:05:48.365Z,3.85
2023-12-18T11:06:48.338Z,3.70
2023-12-18T11:07:48.314Z,3.89
2023-12-18T11:08:48.340Z,3.88
2023-12-18T11:09:48.362Z,3.97
2023-12-18T11:10:48.436Z,3.80
2023-12-18T11:11:48.278Z,3.88
2023-12-18T11:12:48.414Z,3.76
2023-12-18T11:13:48.294Z,3.82
2023-12-18T11:14:48.384Z,3.90
2023-12-18T11:15:48.307Z,3.89
2023-12-18T11:16:48.258Z,3.94
2023-12-18T11:17:48.382Z,3.97
2023-12-18T11:18:48.494Z,4.07
2023-12-18T11:19:48.260Z,4.07
2023-12-18T11:20:48.236Z,4.03
2023-12-18T11:21:48.235Z,4.08
2023-12-18T11:22:48.212Z,4.37
2023-12-18T11:23:50.537Z,4.21
2023-12-18T11:24:49.301Z,4.18
2023-12-18T11:25:49.252Z,4.04
2023-12-18T11:26:48.190Z,4.00
2023-12-18T11:27:48.282Z,3.83
2023-12-18T11:28:49.203Z,3.78
2023-12-18T11:29:48.167Z,3.78
2023-12-18T11:30:48.407Z,3.75
2023-12-18T11:31:48.245Z,4.33
2023-12-18T11:32:48.224Z,4.44
2023-12-18T11:33:49.204Z,4.86
2023-12-18T11:34:49.222Z,4.88
2023-12-18T11:35:49.150Z,4.55
2023-12-18T11:36:48.171Z,4.34
2023-12-18T11:37:48.137Z,4.32
2023-12-18T11:38:48.106Z,4.25
2023-12-18T11:39:48.129Z,4.34
2023-12-18T11:40:48.094Z,4.29
2023-12-18T11:41:48.088Z,4.32
2023-12-18T11:42:48.154Z,4.50
2023-12-18T11:43:48.084Z,4.28
2023-12-18T11:44:48.090Z,4.43
2023-12-18T11:45:48.136Z,4.77
2023-12-18T11:46:48.064Z,4.65
2023-12-18T11:47:48.085Z,4.62
2023-12-18T11:48:48.325Z,4.43
2023-12-18T11:49:48.426Z,4.73
2023-12-18T11:50:48.094Z,4.65
2023-12-18T11:51:48.040Z,4.61
2023-12-18T11:52:48.034Z,4.58
2023-12-18T11:53:48.005Z,5.38
2023-12-18T11:54:48.072Z,5.02
2023-12-18T11:55:48.344Z,5.63
2023-12-18T11:56:48.008Z,6.00
2023-12-18T11:57:48.002Z,5.78
2023-12-18T11:58:47.997Z,5.27
2023-12-18T11:59:47.970Z,5.07
2023-12-18T12:00:47.988Z,5.88
2023-12-18T12:01:47.960Z,6.59
2023-12-18T12:02:47.938Z,7.15
2023-12-18T12:03:48.054Z,6.69
2023-12-18T12:04:48.088Z,5.98
2023-12-18T12:05:47.998Z,5.48
2023-12-18T12:06:48.013Z,5.19
2023-12-18T12:07:47.905Z,5.04
2023-12-18T12:08:47.942Z,5.16
2023-12-18T12:09:47.919Z,5.12
2023-12-18T12:10:47.896Z,5.14
2023-12-18T12:11:47.912Z,5.85
2023-12-18T12:12:47.883Z,5.89
2023-12-18T12:13:48.887Z,6.29
2023-12-18T12:14:47.854Z,6.35
2023-12-18T12:15:47.876Z,6.71
2023-12-18T12:16:47.832Z,6.71
2023-12-18T12:17:48.185Z,7.19
2023-12-18T12:18:48.239Z,7.56
2023-12-18T12:19:47.886Z,7.63
2023-12-18T12:20:47.861Z,7.23
2023-12-18T12:21:48.489Z,7.41
2023-12-18T12:22:47.872Z,7.79
2023-12-18T12:23:47.815Z,7.89
2023-12-18T12:24:47.830Z,7.23
2023-12-18T12:25:47.793Z,7.53
2023-12-18T12:26:47.967Z,7.75
2023-12-18T12:27:47.819Z,7.60
2023-12-18T12:28:47.826Z,7.94
2023-12-18T12:29:47.790Z,7.84
2023-12-18T12:30:47.813Z,7.49
2023-12-18T12:31:53.882Z,6.97
2023-12-18T12:32:49.869Z,6.69
2023-12-18T12:33:47.855Z,7.42
2023-12-18T12:34:47.817Z,7.13
2023-12-18T12:35:47.749Z,7.32
2023-12-18T12:36:47.757Z,6.58
2023-12-18T12:37:47.699Z,5.78
2023-12-18T12:38:47.696Z,6.25
2023-12-18T12:39:47.706Z,6.25
2023-12-18T12:40:47.691Z,5.82
2023-12-18T12:41:47.670Z,5.38
2023-12-18T12:42:47.674Z,5.19
2023-12-18T12:43:47.684Z,4.91
2023-12-18T12:44:47.654Z,4.84
2023-12-18T12:45:47.654Z,5.22
2023-12-18T12:46:47.645Z,5.22
2023-12-18T12:47:47.972Z,5.77
2023-12-18T12:48:47.742Z,6.13
2023-12-18T12:49:47.703Z,5.78
2023-12-18T12:50:47.618Z,5.73
2023-12-18T12:51:47.660Z,5.89
2023-12-18T12:52:47.688Z,6.10
2023-12-18T12:53:47.606Z,6.59
2023-12-18T12:54:47.643Z,6.99
2023-12-18T12:55:47.600Z,7.27
2023-12-18T12:56:47.574Z,7.62
2023-12-18T12:57:47.611Z,7.71
2023-12-18T12:58:47.575Z,7.52
2023-12-18T12:59:47.550Z,6.79
2023-12-18T13:00:47.633Z,7.07
2023-12-18T13:01:47.648Z,6.79
2023-12-18T13:02:47.553Z,6.94
2023-12-18T13:03:47.596Z,7.09
2023-12-18T13:04:48.527Z,7.27
2023-12-18T13:05:47.613Z,7.47
2023-12-18T13:06:47.558Z,7.05
2023-12-18T13:07:47.502Z,6.99
2023-12-18T13:08:47.492Z,7.26
2023-12-18T13:09:47.519Z,7.55
2023-12-18T13:10:47.491Z,7.09
2023-12-18T13:11:47.504Z,6.73
2023-12-18T13:12:47.536Z,6.07
2023-12-18T13:13:47.470Z,5.73
2023-12-18T13:14:47.471Z,6.32
2023-12-18T13:15:47.478Z,6.68
2023-12-18T13:16:47.484Z,7.04
2023-12-18T13:17:47.525Z,7.24
2023-12-18T13:18:47.503Z,7.27